Grove Hill, AL (36451)

11:49 PM CDT on July 24, 2014 (GMT -0500)
Belview Circle (KALJACKS2) Elev 381 ft | 31.54 °N, 87.89 °W | Change Station

Current weather conditions updated 4 seconds ago

Partly Cloudy
Partly Cloudy
76.0 °F
Feels Like 75 °F
N
0.0
Wind Variable Wind from West
Gusts 0.0 mph

Tomorrow is forecast to be nearly the same temperature as today.

Today
High -- | Low -- °F
--% Chance of Precip.
Yesterday
High -- | Low -- °F
Precip. -- in
6:01 AM 7:52 PM
Waning Crescent, 3% visible
Pressure 30.01 in
Visibility 10.0 miles
Clouds Clear
Heat Index 75 °F
Dew Point 76 °F
Humidity 100%
Rainfall 0.00 in
Snow Depth Not available.
UV 0 out of 12
Pollen 3.40 out of 12
Air Quality Not available.
Flu Activity Not available.
METAR KGZH 250353Z AUTO 00000KT 10SM CLR 25/23 A3002 RMK AO2 SLP160 T02500233

More Conditions Fewer Conditions

Pressure 30.01 in
Visibility 10.0 miles
Clouds Clear
Heat Index 75 °F
Dew Point 76 °F
Humidity 100%
Rainfall 0.00 in
Snow Depth Not available.
UV 0 out of 12
Pollen 3.40 out of 12
Air Quality Not available.
Flu Activity Not available.
METAR KGZH 250353Z AUTO 00000KT 10SM CLR 25/23 A3002 RMK AO2 SLP160 T02500233

More Conditions Fewer Conditions

10-Day Weather Forecast

Almanac

Astronomy

Jul. 24, 2014 Rise Set
Actual Time 6:01 AM CDT 7:52 PM CDT
Civil Twilight 5:34 AM CDT 8:19 PM CDT
Nautical Twilight 5:02 AM CDT 8:52 PM CDT
Astronomical Twilight 4:27 AM CDT 9:27 PM CDT
Moon 4:08 AM CDT (7/24) 6:09 PM CDT (7/24)
Length of Visible Light 14h 45m
Length of Day
13h 51m
Tomorrow will be 1m 15s shorter.
Waning Crescent, 3% of the Moon is Illuminated
Jul 25
Waning Crescent
Jul 26
New
Aug 3
First Quarter
Aug 10
Full
Aug 17
Last Quarter

Yesterday's Extremes

State Highs State Lows

Community

WunderPhotos

Upload Photos

1,737,244 photos uploaded!

Nearby

Snow Depth

Station Depth Elevation
No new snow has been reported.

Earthquake Activity

City Distance Mag. Time & Date
No recent earthquake activity has been reported nearby.
Minimum magnitude displayed is 2.5.

Coastal Water Temperatures

Place Temperature
No Stations Reporting

Nearby Weather Stations

Station Location Temp. Heat Index Dew Point Humidity Wind Precip. Elev Updated Type
Belview Circle, Jackson, AL 76.0 °F 75 °F 76 °F 100% West  at  0.0 mph 0.00 in / hr 381 ft 11:49 PM CDT Rapid Fire
HCN THOMASVILLE 2 S AL , Thomasville, AL 76 °F 74 °F - - North  at  - 0.00 in / hr 350 ft 10:40 PM CDT MADIS
Jackson, AL, Jackson, AL 79.4 °F 84 °F 76 °F 90% WSW  at  0.0 mph 0.00 in / hr 53 ft 11:49 PM CDT Rapid Fire
Perdue Hill, AL 79.0 °F 83 °F 76 °F 89% SSE  at  0.0 mph 0.00 in / hr 70 ft 11:45 PM CDT Normal
Pine Hill, AL 36769, Pine Hill, AL 75.7 °F 75 °F 74 °F 94% NNW  at  0.0 mph 0.00 in / hr 210 ft 11:49 PM CDT Rapid Fire

Show More Stations Show Fewer Stations